sensor_id;sensor_type;location;lat;lon;timestamp;P1;durP1;ratioP1;P2;durP2;ratioP2
49183;SDS011;35021;49.214;12.270;2022-08-19T00:01:22;6.55;;;6.05;;
49183;SDS011;35021;49.214;12.270;2022-08-19T00:03:55;6.50;;;6.00;;
49183;SDS011;35021;49.214;12.270;2022-08-19T00:06:27;7.07;;;6.47;;
49183;SDS011;35021;49.214;12.270;2022-08-19T00:08:54;7.20;;;6.60;;
49183;SDS011;35021;49.214;12.270;2022-08-19T00:11:23;6.90;;;6.28;;
49183;SDS011;35021;49.214;12.270;2022-08-19T00:13:51;7.28;;;6.65;;
49183;SDS011;35021;49.214;12.270;2022-08-19T00:16:19;6.93;;;6.32;;
49183;SDS011;35021;49.214;12.270;2022-08-19T00:18:51;6.70;;;6.10;;
49183;SDS011;35021;49.214;12.270;2022-08-19T00:21:19;7.10;;;6.40;;
49183;SDS011;35021;49.214;12.270;2022-08-19T00:23:46;6.60;;;6.00;;
49183;SDS011;35021;49.214;12.270;2022-08-19T00:26:13;7.97;;;7.20;;
49183;SDS011;35021;49.214;12.270;2022-08-19T00:28:40;6.35;;;5.82;;
49183;SDS011;35021;49.214;12.270;2022-08-19T00:31:07;6.93;;;6.32;;
49183;SDS011;35021;49.214;12.270;2022-08-19T00:33:35;6.85;;;6.25;;
49183;SDS011;35021;49.214;12.270;2022-08-19T00:36:05;6.97;;;6.38;;
49183;SDS011;35021;49.214;12.270;2022-08-19T00:38:34;7.05;;;6.50;;
49183;SDS011;35021;49.214;12.270;2022-08-19T00:41:04;6.28;;;5.78;;
49183;SDS011;35021;49.214;12.270;2022-08-19T00:43:32;7.15;;;6.53;;
49183;SDS011;35021;49.214;12.270;2022-08-19T00:45:59;7.10;;;6.40;;
49183;SDS011;35021;49.214;12.270;2022-08-19T00:48:31;6.90;;;6.32;;
49183;SDS011;35021;49.214;12.270;2022-08-19T00:50:59;6.95;;;6.30;;
49183;SDS011;35021;49.214;12.270;2022-08-19T00:53:28;6.80;;;6.20;;
49183;SDS011;35021;49.214;12.270;2022-08-19T00:55:58;6.55;;;5.95;;
49183;SDS011;35021;49.214;12.270;2022-08-19T00:58:29;6.60;;;6.07;;
49183;SDS011;35021;49.214;12.270;2022-08-19T01:00:58;7.57;;;6.88;;
49183;SDS011;35021;49.214;12.270;2022-08-19T01:03:27;6.43;;;5.82;;
49183;SDS011;35021;49.214;12.270;2022-08-19T01:06:14;7.05;;;6.45;;
49183;SDS011;35021;49.214;12.270;2022-08-19T01:08:46;6.68;;;5.85;;
49183;SDS011;35021;49.214;12.270;2022-08-19T01:11:15;6.72;;;6.20;;
49183;SDS011;35021;49.214;12.270;2022-08-19T01:13:43;6.80;;;6.20;;
49183;SDS011;35021;49.214;12.270;2022-08-19T01:16:16;7.35;;;6.75;;
49183;SDS011;35021;49.214;12.270;2022-08-19T01:18:45;6.32;;;5.82;;
49183;SDS011;35021;49.214;12.270;2022-08-19T01:21:18;7.45;;;5.80;;
49183;SDS011;35021;49.214;12.270;2022-08-19T01:23:49;6.82;;;6.20;;
49183;SDS011;35021;49.214;12.270;2022-08-19T01:26:19;7.13;;;6.43;;
49183;SDS011;35021;49.214;12.270;2022-08-19T01:28:50;6.68;;;5.95;;
49183;SDS011;35021;49.214;12.270;2022-08-19T01:31:26;6.75;;;6.15;;
49183;SDS011;35021;49.214;12.270;2022-08-19T01:33:58;6.60;;;6.10;;
49183;SDS011;35021;49.214;12.270;2022-08-19T01:38:58;6.68;;;6.07;;
49183;SDS011;35021;49.214;12.270;2022-08-19T01:41:26;7.65;;;6.95;;
49183;SDS011;35021;49.214;12.270;2022-08-19T01:43:53;7.03;;;6.32;;
49183;SDS011;35021;49.214;12.270;2022-08-19T01:46:41;7.00;;;6.40;;
49183;SDS011;35021;49.214;12.270;2022-08-19T01:49:09;7.10;;;6.50;;
49183;SDS011;35021;49.214;12.270;2022-08-19T01:51:36;6.95;;;6.35;;
49183;SDS011;35021;49.214;12.270;2022-08-19T01:54:05;6.97;;;6.38;;
49183;SDS011;35021;49.214;12.270;2022-08-19T01:56:33;6.88;;;6.28;;
49183;SDS011;35021;49.214;12.270;2022-08-19T01:59:02;6.97;;;6.28;;
49183;SDS011;35021;49.214;12.270;2022-08-19T02:01:32;6.45;;;5.90;;
49183;SDS011;35021;49.214;12.270;2022-08-19T02:04:01;6.65;;;6.15;;
49183;SDS011;35021;49.214;12.270;2022-08-19T02:06:28;6.78;;;6.18;;
49183;SDS011;35021;49.214;12.270;2022-08-19T02:08:56;6.70;;;6.05;;
49183;SDS011;35021;49.214;12.270;2022-08-19T02:11:24;7.20;;;6.60;;
49183;SDS011;35021;49.214;12.270;2022-08-19T02:13:58;6.55;;;5.97;;
49183;SDS011;35021;49.214;12.270;2022-08-19T02:16:26;6.68;;;6.07;;
49183;SDS011;35021;49.214;12.270;2022-08-19T02:18:53;6.57;;;6.07;;
49183;SDS011;35021;49.214;12.270;2022-08-19T02:21:21;6.93;;;6.35;;
49183;SDS011;35021;49.214;12.270;2022-08-19T02:23:50;7.18;;;6.57;;
49183;SDS011;35021;49.214;12.270;2022-08-19T02:26:17;7.32;;;6.63;;
49183;SDS011;35021;49.214;12.270;2022-08-19T02:28:44;6.80;;;6.20;;
49183;SDS011;35021;49.214;12.270;2022-08-19T02:31:13;6.78;;;6.18;;
49183;SDS011;35021;49.214;12.270;2022-08-19T02:33:44;7.32;;;6.72;;
49183;SDS011;35021;49.214;12.270;2022-08-19T02:36:12;6.90;;;6.30;;
49183;SDS011;35021;49.214;12.270;2022-08-19T02:38:41;7.32;;;6.65;;
49183;SDS011;35021;49.214;12.270;2022-08-19T02:41:21;6.65;;;6.15;;
49183;SDS011;35021;49.214;12.270;2022-08-19T02:43:52;7.47;;;6.78;;
49183;SDS011;35021;49.214;12.270;2022-08-19T02:46:40;6.90;;;6.40;;
49183;SDS011;35021;49.214;12.270;2022-08-19T02:49:07;6.43;;;5.93;;
49183;SDS011;35021;49.214;12.270;2022-08-19T02:51:36;6.60;;;6.10;;
49183;SDS011;35021;49.214;12.270;2022-08-19T02:54:05;6.68;;;6.07;;
49183;SDS011;35021;49.214;12.270;2022-08-19T02:56:34;7.03;;;6.43;;
49183;SDS011;35021;49.214;12.270;2022-08-19T02:59:01;7.03;;;6.43;;
49183;SDS011;35021;49.214;12.270;2022-08-19T03:01:35;6.75;;;6.15;;
49183;SDS011;35021;49.214;12.270;2022-08-19T03:04:03;7.05;;;6.35;;
49183;SDS011;35021;49.214;12.270;2022-08-19T03:06:35;7.40;;;6.78;;
49183;SDS011;35021;49.214;12.270;2022-08-19T03:09:03;7.32;;;6.57;;
49183;SDS011;35021;49.214;12.270;2022-08-19T03:11:30;7.20;;;6.50;;
49183;SDS011;35021;49.214;12.270;2022-08-19T03:13:58;6.93;;;6.28;;
49183;SDS011;35021;49.214;12.270;2022-08-19T03:16:26;6.57;;;5.97;;
49183;SDS011;35021;49.214;12.270;2022-08-19T03:18:59;6.72;;;6.13;;
49183;SDS011;35021;49.214;12.270;2022-08-19T03:21:28;7.25;;;6.55;;
49183;SDS011;35021;49.214;12.270;2022-08-19T03:23:58;7.03;;;6.35;;
49183;SDS011;35021;49.214;12.270;2022-08-19T03:26:27;6.80;;;6.05;;
49183;SDS011;35021;49.214;12.270;2022-08-19T03:28:55;6.80;;;6.20;;
49183;SDS011;35021;49.214;12.270;2022-08-19T03:31:24;6.38;;;5.88;;
49183;SDS011;35021;49.214;12.270;2022-08-19T03:34:15;6.82;;;6.22;;
49183;SDS011;35021;49.214;12.270;2022-08-19T03:36:45;6.72;;;6.13;;
49183;SDS011;35021;49.214;12.270;2022-08-19T03:39:13;6.78;;;6.18;;
49183;SDS011;35021;49.214;12.270;2022-08-19T03:41:41;6.43;;;5.82;;
49183;SDS011;35021;49.214;12.270;2022-08-19T03:44:16;6.25;;;5.75;;
49183;SDS011;35021;49.214;12.270;2022-08-19T03:46:46;6.85;;;6.25;;
49183;SDS011;35021;49.214;12.270;2022-08-19T03:49:14;6.97;;;6.38;;
49183;SDS011;35021;49.214;12.270;2022-08-19T03:51:43;6.90;;;6.30;;
49183;SDS011;35021;49.214;12.270;2022-08-19T03:54:12;6.57;;;5.97;;
49183;SDS011;35021;49.214;12.270;2022-08-19T03:56:42;6.82;;;6.22;;
49183;SDS011;35021;49.214;12.270;2022-08-19T03:59:11;6.70;;;6.10;;
49183;SDS011;35021;49.214;12.270;2022-08-19T04:01:40;6.57;;;6.07;;
49183;SDS011;35021;49.214;12.270;2022-08-19T04:04:08;6.55;;;5.95;;
49183;SDS011;35021;49.214;12.270;2022-08-19T04:06:35;5.78;;;5.32;;
49183;SDS011;35021;49.214;12.270;2022-08-19T04:09:06;6.97;;;6.35;;
49183;SDS011;35021;49.214;12.270;2022-08-19T04:11:42;6.22;;;5.72;;
49183;SDS011;35021;49.214;12.270;2022-08-19T04:16:40;6.30;;;5.75;;
49183;SDS011;35021;49.214;12.270;2022-08-19T04:19:08;6.25;;;5.65;;
49183;SDS011;35021;49.214;12.270;2022-08-19T04:21:35;5.93;;;5.43;;
49183;SDS011;35021;49.214;12.270;2022-08-19T04:24:02;6.15;;;5.55;;
49183;SDS011;35021;49.214;12.270;2022-08-19T04:26:31;6.70;;;6.10;;
49183;SDS011;35021;49.214;12.270;2022-08-19T04:29:03;6.40;;;5.90;;
49183;SDS011;35021;49.214;12.270;2022-08-19T04:31:37;6.00;;;5.30;;
49183;SDS011;35021;49.214;12.270;2022-08-19T04:34:07;5.90;;;5.40;;
49183;SDS011;35021;49.214;12.270;2022-08-19T04:36:38;6.10;;;5.60;;
49183;SDS011;35021;49.214;12.270;2022-08-19T04:39:16;5.90;;;5.40;;
49183;SDS011;35021;49.214;12.270;2022-08-19T04:41:45;6.60;;;6.00;;
49183;SDS011;35021;49.214;12.270;2022-08-19T04:44:32;6.10;;;5.60;;
49183;SDS011;35021;49.214;12.270;2022-08-19T04:47:01;5.82;;;5.43;;
49183;SDS011;35021;49.214;12.270;2022-08-19T04:49:36;6.70;;;6.10;;
49183;SDS011;35021;49.214;12.270;2022-08-19T04:52:03;6.05;;;5.55;;
49183;SDS011;35021;49.214;12.270;2022-08-19T04:54:30;6.00;;;5.40;;
49183;SDS011;35021;49.214;12.270;2022-08-19T04:57:05;6.32;;;5.82;;
49183;SDS011;35021;49.214;12.270;2022-08-19T04:59:35;6.70;;;6.10;;
49183;SDS011;35021;49.214;12.270;2022-08-19T05:02:02;6.40;;;5.78;;
49183;SDS011;35021;49.214;12.270;2022-08-19T05:04:30;6.38;;;5.88;;
49183;SDS011;35021;49.214;12.270;2022-08-19T05:06:58;6.32;;;5.80;;
49183;SDS011;35021;49.214;12.270;2022-08-19T05:09:27;6.30;;;5.80;;
49183;SDS011;35021;49.214;12.270;2022-08-19T05:12:15;6.20;;;5.70;;
49183;SDS011;35021;49.214;12.270;2022-08-19T05:14:42;5.95;;;5.53;;
49183;SDS011;35021;49.214;12.270;2022-08-19T05:17:11;5.75;;;5.25;;
49183;SDS011;35021;49.214;12.270;2022-08-19T05:19:58;6.55;;;5.60;;
49183;SDS011;35021;49.214;12.270;2022-08-19T05:22:46;5.82;;;5.43;;
49183;SDS011;35021;49.214;12.270;2022-08-19T05:25:15;6.13;;;5.63;;
49183;SDS011;35021;49.214;12.270;2022-08-19T05:27:45;5.40;;;4.90;;
49183;SDS011;35021;49.214;12.270;2022-08-19T05:30:13;6.22;;;5.70;;
49183;SDS011;35021;49.214;12.270;2022-08-19T05:32:41;6.50;;;5.90;;
49183;SDS011;35021;49.214;12.270;2022-08-19T05:35:08;5.88;;;5.32;;
49183;SDS011;35021;49.214;12.270;2022-08-19T05:37:35;6.03;;;5.53;;
49183;SDS011;35021;49.214;12.270;2022-08-19T05:40:03;5.63;;;5.13;;
49183;SDS011;35021;49.214;12.270;2022-08-19T05:42:30;5.78;;;5.28;;
49183;SDS011;35021;49.214;12.270;2022-08-19T05:44:58;6.22;;;5.63;;
49183;SDS011;35021;49.214;12.270;2022-08-19T05:47:24;6.00;;;5.50;;
49183;SDS011;35021;49.214;12.270;2022-08-19T05:49:51;5.90;;;5.40;;
49183;SDS011;35021;49.214;12.270;2022-08-19T05:52:18;5.88;;;5.38;;
49183;SDS011;35021;49.214;12.270;2022-08-19T05:54:51;6.78;;;6.03;;
49183;SDS011;35021;49.214;12.270;2022-08-19T05:57:18;5.70;;;5.30;;
49183;SDS011;35021;49.214;12.270;2022-08-19T05:59:45;5.50;;;5.00;;
49183;SDS011;35021;49.214;12.270;2022-08-19T06:02:17;5.40;;;4.95;;
49183;SDS011;35021;49.214;12.270;2022-08-19T06:04:44;5.80;;;5.30;;
49183;SDS011;35021;49.214;12.270;2022-08-19T06:07:11;5.72;;;5.28;;
49183;SDS011;35021;49.214;12.270;2022-08-19T06:09:38;5.63;;;5.13;;
49183;SDS011;35021;49.214;12.270;2022-08-19T06:12:08;5.38;;;4.97;;
49183;SDS011;35021;49.214;12.270;2022-08-19T06:14:35;5.55;;;5.05;;
49183;SDS011;35021;49.214;12.270;2022-08-19T06:17:07;6.30;;;5.70;;
49183;SDS011;35021;49.214;12.270;2022-08-19T06:19:34;6.03;;;5.45;;
49183;SDS011;35021;49.214;12.270;2022-08-19T06:22:06;5.85;;;5.35;;
49183;SDS011;35021;49.214;12.270;2022-08-19T06:24:34;6.05;;;5.55;;
49183;SDS011;35021;49.214;12.270;2022-08-19T06:27:02;5.70;;;5.20;;
49183;SDS011;35021;49.214;12.270;2022-08-19T06:29:31;6.03;;;5.50;;
49183;SDS011;35021;49.214;12.270;2022-08-19T06:32:00;6.38;;;5.78;;
49183;SDS011;35021;49.214;12.270;2022-08-19T06:34:30;5.78;;;5.28;;
49183;SDS011;35021;49.214;12.270;2022-08-19T06:36:59;5.53;;;5.03;;
49183;SDS011;35021;49.214;12.270;2022-08-19T06:39:31;6.18;;;5.68;;
49183;SDS011;35021;49.214;12.270;2022-08-19T06:42:02;5.93;;;5.50;;
49183;SDS011;35021;49.214;12.270;2022-08-19T06:44:36;6.07;;;5.57;;
49183;SDS011;35021;49.214;12.270;2022-08-19T06:47:09;5.97;;;5.47;;
49183;SDS011;35021;49.214;12.270;2022-08-19T06:49:50;6.85;;;5.85;;
49183;SDS011;35021;49.214;12.270;2022-08-19T06:52:19;5.90;;;5.40;;
49183;SDS011;35021;49.214;12.270;2022-08-19T06:54:46;5.80;;;5.28;;
49183;SDS011;35021;49.214;12.270;2022-08-19T06:57:25;5.75;;;5.25;;
49183;SDS011;35021;49.214;12.270;2022-08-19T06:59:52;5.05;;;4.65;;
49183;SDS011;35021;49.214;12.270;2022-08-19T07:02:19;5.50;;;4.95;;
49183;SDS011;35021;49.214;12.270;2022-08-19T07:04:47;6.00;;;5.00;;
49183;SDS011;35021;49.214;12.270;2022-08-19T07:07:18;6.20;;;5.70;;
49183;SDS011;35021;49.214;12.270;2022-08-19T07:09:47;5.72;;;5.20;;
49183;SDS011;35021;49.214;12.270;2022-08-19T07:12:25;5.30;;;4.88;;
49183;SDS011;35021;49.214;12.270;2022-08-19T07:14:56;5.50;;;5.00;;
49183;SDS011;35021;49.214;12.270;2022-08-19T07:17:23;5.38;;;4.88;;
49183;SDS011;35021;49.214;12.270;2022-08-19T07:19:51;5.50;;;5.00;;
49183;SDS011;35021;49.214;12.270;2022-08-19T07:22:20;5.10;;;4.70;;
49183;SDS011;35021;49.214;12.270;2022-08-19T07:24:50;4.97;;;4.57;;
49183;SDS011;35021;49.214;12.270;2022-08-19T07:27:18;5.32;;;4.93;;
49183;SDS011;35021;49.214;12.270;2022-08-19T07:29:50;5.10;;;4.60;;
49183;SDS011;35021;49.214;12.270;2022-08-19T07:32:23;5.43;;;5.03;;
49183;SDS011;35021;49.214;12.270;2022-08-19T07:34:52;5.20;;;4.80;;
49183;SDS011;35021;49.214;12.270;2022-08-19T07:37:19;5.22;;;4.82;;
49183;SDS011;35021;49.214;12.270;2022-08-19T07:39:46;5.22;;;4.82;;
49183;SDS011;35021;49.214;12.270;2022-08-19T07:42:13;4.70;;;4.30;;
49183;SDS011;35021;49.214;12.270;2022-08-19T07:44:41;5.13;;;4.72;;
49183;SDS011;35021;49.214;12.270;2022-08-19T07:47:16;4.93;;;4.43;;
49183;SDS011;35021;49.214;12.270;2022-08-19T07:50:05;5.00;;;4.60;;
49183;SDS011;35021;49.214;12.270;2022-08-19T07:52:33;5.40;;;4.93;;
49183;SDS011;35021;49.214;12.270;2022-08-19T07:55:03;5.15;;;4.75;;
49183;SDS011;35021;49.214;12.270;2022-08-19T07:57:30;5.47;;;4.90;;
49183;SDS011;35021;49.214;12.270;2022-08-19T07:59:58;4.80;;;4.40;;
49183;SDS011;35021;49.214;12.270;2022-08-19T08:02:25;5.35;;;4.95;;
49183;SDS011;35021;49.214;12.270;2022-08-19T08:04:52;4.90;;;4.50;;
49183;SDS011;35021;49.214;12.270;2022-08-19T08:10:24;5.68;;;5.18;;
49183;SDS011;35021;49.214;12.270;2022-08-19T08:12:51;5.03;;;4.63;;
49183;SDS011;35021;49.214;12.270;2022-08-19T08:15:36;5.03;;;4.63;;
49183;SDS011;35021;49.214;12.270;2022-08-19T08:18:09;4.85;;;4.45;;
49183;SDS011;35021;49.214;12.270;2022-08-19T08:20:37;4.60;;;4.30;;
49183;SDS011;35021;49.214;12.270;2022-08-19T08:23:04;4.90;;;4.50;;
49183;SDS011;35021;49.214;12.270;2022-08-19T08:25:51;5.00;;;4.60;;
49183;SDS011;35021;49.214;12.270;2022-08-19T08:28:19;5.00;;;4.60;;
49183;SDS011;35021;49.214;12.270;2022-08-19T08:30:47;4.20;;;3.90;;
49183;SDS011;35021;49.214;12.270;2022-08-19T08:33:20;4.93;;;4.53;;
49183;SDS011;35021;49.214;12.270;2022-08-19T08:35:59;4.80;;;4.40;;
49183;SDS011;35021;49.214;12.270;2022-08-19T08:38:33;5.00;;;4.60;;
49183;SDS011;35021;49.214;12.270;2022-08-19T08:41:12;5.32;;;4.93;;
49183;SDS011;35021;49.214;12.270;2022-08-19T08:43:54;5.55;;;4.60;;
49183;SDS011;35021;49.214;12.270;2022-08-19T08:46:28;5.38;;;4.78;;
49183;SDS011;35021;49.214;12.270;2022-08-19T08:49:06;5.20;;;4.80;;
49183;SDS011;35021;49.214;12.270;2022-08-19T08:51:44;5.63;;;5.13;;
49183;SDS011;35021;49.214;12.270;2022-08-19T08:54:25;4.97;;;4.57;;
49183;SDS011;35021;49.214;12.270;2022-08-19T08:57:28;5.18;;;4.78;;
49183;SDS011;35021;49.214;12.270;2022-08-19T09:00:08;6.10;;;5.53;;
49183;SDS011;35021;49.214;12.270;2022-08-19T09:02:41;5.70;;;5.27;;
49183;SDS011;35021;49.214;12.270;2022-08-19T09:05:09;5.85;;;5.35;;
49183;SDS011;35021;49.214;12.270;2022-08-19T09:10:19;5.20;;;4.80;;
49183;SDS011;35021;49.214;12.270;2022-08-19T09:15:42;5.77;;;5.33;;
49183;SDS011;35021;49.214;12.270;2022-08-19T09:18:14;5.90;;;5.38;;
49183;SDS011;35021;49.214;12.270;2022-08-19T09:20:45;5.95;;;5.45;;
49183;SDS011;35021;49.214;12.270;2022-08-19T09:23:15;7.07;;;5.63;;
49183;SDS011;35021;49.214;12.270;2022-08-19T09:25:42;5.82;;;5.32;;
49183;SDS011;35021;49.214;12.270;2022-08-19T09:28:09;5.60;;;5.10;;
49183;SDS011;35021;49.214;12.270;2022-08-19T09:30:48;5.53;;;5.03;;
49183;SDS011;35021;49.214;12.270;2022-08-19T09:33:18;6.03;;;5.53;;
49183;SDS011;35021;49.214;12.270;2022-08-19T09:35:46;5.60;;;5.10;;
49183;SDS011;35021;49.214;12.270;2022-08-19T09:38:18;5.28;;;4.78;;
49183;SDS011;35021;49.214;12.270;2022-08-19T09:40:46;5.97;;;5.47;;
49183;SDS011;35021;49.214;12.270;2022-08-19T09:43:13;5.32;;;4.82;;
49183;SDS011;35021;49.214;12.270;2022-08-19T09:45:58;5.60;;;5.10;;
49183;SDS011;35021;49.214;12.270;2022-08-19T09:48:26;5.50;;;5.05;;
49183;SDS011;35021;49.214;12.270;2022-08-19T09:50:53;5.18;;;4.78;;
49183;SDS011;35021;49.214;12.270;2022-08-19T09:53:20;5.68;;;5.20;;
49183;SDS011;35021;49.214;12.270;2022-08-19T09:55:51;6.00;;;5.50;;
49183;SDS011;35021;49.214;12.270;2022-08-19T09:58:18;5.53;;;5.13;;
49183;SDS011;35021;49.214;12.270;2022-08-19T10:00:51;6.30;;;5.70;;
49183;SDS011;35021;49.214;12.270;2022-08-19T10:03:19;5.25;;;4.78;;
49183;SDS011;35021;49.214;12.270;2022-08-19T10:05:51;6.13;;;5.63;;
49183;SDS011;35021;49.214;12.270;2022-08-19T10:08:38;5.78;;;5.28;;
49183;SDS011;35021;49.214;12.270;2022-08-19T10:11:15;5.85;;;5.28;;
49183;SDS011;35021;49.214;12.270;2022-08-19T10:14:02;6.30;;;5.72;;
49183;SDS011;35021;49.214;12.270;2022-08-19T10:16:31;5.90;;;5.40;;
49183;SDS011;35021;49.214;12.270;2022-08-19T10:19:05;5.50;;;5.00;;
49183;SDS011;35021;49.214;12.270;2022-08-19T10:21:32;5.90;;;5.40;;
49183;SDS011;35021;49.214;12.270;2022-08-19T10:24:05;5.35;;;4.85;;
49183;SDS011;35021;49.214;12.270;2022-08-19T10:26:36;6.00;;;5.50;;
49183;SDS011;35021;49.214;12.270;2022-08-19T10:29:07;5.60;;;5.10;;
49183;SDS011;35021;49.214;12.270;2022-08-19T10:31:35;5.60;;;5.10;;
49183;SDS011;35021;49.214;12.270;2022-08-19T10:34:23;5.70;;;5.10;;
49183;SDS011;35021;49.214;12.270;2022-08-19T10:36:54;6.00;;;5.50;;
49183;SDS011;35021;49.214;12.270;2022-08-19T10:39:29;5.90;;;5.30;;
49183;SDS011;35021;49.214;12.270;2022-08-19T10:42:08;5.38;;;4.95;;
49183;SDS011;35021;49.214;12.270;2022-08-19T10:44:39;6.22;;;5.63;;
49183;SDS011;35021;49.214;12.270;2022-08-19T10:47:07;5.50;;;5.00;;
49183;SDS011;35021;49.214;12.270;2022-08-19T10:49:50;5.82;;;5.32;;
49183;SDS011;35021;49.214;12.270;2022-08-19T10:52:38;5.53;;;5.00;;
49183;SDS011;35021;49.214;12.270;2022-08-19T10:55:16;5.40;;;5.00;;
49183;SDS011;35021;49.214;12.270;2022-08-19T10:58:10;5.68;;;5.20;;
49183;SDS011;35021;49.214;12.270;2022-08-19T11:00:42;6.00;;;5.50;;
49183;SDS011;35021;49.214;12.270;2022-08-19T11:03:17;6.07;;;5.50;;
49183;SDS011;35021;49.214;12.270;2022-08-19T11:05:44;5.25;;;4.85;;
49183;SDS011;35021;49.214;12.270;2022-08-19T11:08:11;5.78;;;5.25;;
49183;SDS011;35021;49.214;12.270;2022-08-19T11:10:53;5.55;;;5.05;;
49183;SDS011;35021;49.214;12.270;2022-08-19T11:13:27;5.93;;;5.43;;
49183;SDS011;35021;49.214;12.270;2022-08-19T11:15:59;6.10;;;5.60;;
49183;SDS011;35021;49.214;12.270;2022-08-19T11:18:37;5.63;;;5.22;;
49183;SDS011;35021;49.214;12.270;2022-08-19T11:21:10;6.10;;;5.50;;
49183;SDS011;35021;49.214;12.270;2022-08-19T11:23:37;5.57;;;5.07;;
49183;SDS011;35021;49.214;12.270;2022-08-19T11:26:04;5.45;;;4.95;;
49183;SDS011;35021;49.214;12.270;2022-08-19T11:28:31;5.43;;;4.93;;
49183;SDS011;35021;49.214;12.270;2022-08-19T11:30:58;5.20;;;4.80;;
49183;SDS011;35021;49.214;12.270;2022-08-19T11:33:25;5.30;;;4.78;;
49183;SDS011;35021;49.214;12.270;2022-08-19T11:35:52;7.40;;;5.20;;
49183;SDS011;35021;49.214;12.270;2022-08-19T11:38:20;5.15;;;4.63;;
49183;SDS011;35021;49.214;12.270;2022-08-19T11:40:53;5.35;;;4.95;;
49183;SDS011;35021;49.214;12.270;2022-08-19T11:43:21;5.07;;;4.68;;
49183;SDS011;35021;49.214;12.270;2022-08-19T11:45:48;5.05;;;4.65;;
49183;SDS011;35021;49.214;12.270;2022-08-19T11:48:15;5.85;;;5.32;;
49183;SDS011;35021;49.214;12.270;2022-08-19T11:50:41;5.50;;;5.00;;
49183;SDS011;35021;49.214;12.270;2022-08-19T11:53:09;5.35;;;4.85;;
49183;SDS011;35021;49.214;12.270;2022-08-19T11:55:37;4.82;;;4.43;;
49183;SDS011;35021;49.214;12.270;2022-08-19T11:58:09;5.65;;;5.15;;
49183;SDS011;35021;49.214;12.270;2022-08-19T12:00:44;5.50;;;5.00;;
49183;SDS011;35021;49.214;12.270;2022-08-19T12:03:12;5.43;;;4.93;;
49183;SDS011;35021;49.214;12.270;2022-08-19T12:05:40;5.90;;;5.40;;
49183;SDS011;35021;49.214;12.270;2022-08-19T12:08:08;5.13;;;4.72;;
49183;SDS011;35021;49.214;12.270;2022-08-19T12:10:35;5.68;;;5.13;;
49183;SDS011;35021;49.214;12.270;2022-08-19T12:13:02;5.68;;;5.07;;
49183;SDS011;35021;49.214;12.270;2022-08-19T12:15:29;5.30;;;4.80;;
49183;SDS011;35021;49.214;12.270;2022-08-19T12:18:03;5.60;;;5.10;;
49183;SDS011;35021;49.214;12.270;2022-08-19T12:20:31;5.25;;;4.85;;
49183;SDS011;35021;49.214;12.270;2022-08-19T12:23:05;5.63;;;5.05;;
49183;SDS011;35021;49.214;12.270;2022-08-19T12:25:32;5.82;;;5.32;;
49183;SDS011;35021;49.214;12.270;2022-08-19T12:28:00;4.88;;;4.47;;
49183;SDS011;35021;49.214;12.270;2022-08-19T12:30:29;5.18;;;4.68;;
49183;SDS011;35021;49.214;12.270;2022-08-19T12:32:56;5.18;;;4.68;;
49183;SDS011;35021;49.214;12.270;2022-08-19T12:35:23;4.93;;;4.43;;
49183;SDS011;35021;49.214;12.270;2022-08-19T12:37:50;5.25;;;4.80;;
49183;SDS011;35021;49.214;12.270;2022-08-19T12:40:22;6.63;;;5.30;;
49183;SDS011;35021;49.214;12.270;2022-08-19T12:42:52;5.55;;;4.50;;
49183;SDS011;35021;49.214;12.270;2022-08-19T12:45:19;4.90;;;4.50;;
49183;SDS011;35021;49.214;12.270;2022-08-19T12:47:47;5.28;;;4.78;;
49183;SDS011;35021;49.214;12.270;2022-08-19T12:50:15;5.13;;;4.72;;
49183;SDS011;35021;49.214;12.270;2022-08-19T12:52:42;4.95;;;4.55;;
49183;SDS011;35021;49.214;12.270;2022-08-19T12:55:09;5.75;;;5.18;;
49183;SDS011;35021;49.214;12.270;2022-08-19T12:57:37;5.03;;;4.63;;
49183;SDS011;35021;49.214;12.270;2022-08-19T13:00:07;5.85;;;5.25;;
49183;SDS011;35021;49.214;12.270;2022-08-19T13:02:40;5.47;;;4.97;;
49183;SDS011;35021;49.214;12.270;2022-08-19T13:05:10;5.28;;;4.78;;
49183;SDS011;35021;49.214;12.270;2022-08-19T13:07:40;4.88;;;4.47;;
49183;SDS011;35021;49.214;12.270;2022-08-19T13:10:11;4.78;;;4.38;;
49183;SDS011;35021;49.214;12.270;2022-08-19T13:12:41;5.68;;;5.18;;
49183;SDS011;35021;49.214;12.270;2022-08-19T13:15:08;7.72;;;5.22;;
49183;SDS011;35021;49.214;12.270;2022-08-19T13:17:37;5.00;;;4.60;;
49183;SDS011;35021;49.214;12.270;2022-08-19T13:20:05;5.43;;;4.93;;
49183;SDS011;35021;49.214;12.270;2022-08-19T13:22:37;5.60;;;5.10;;
49183;SDS011;35021;49.214;12.270;2022-08-19T13:25:04;5.72;;;5.10;;
49183;SDS011;35021;49.214;12.270;2022-08-19T13:27:32;5.15;;;4.75;;
49183;SDS011;35021;49.214;12.270;2022-08-19T13:29:59;7.38;;;5.60;;
49183;SDS011;35021;49.214;12.270;2022-08-19T13:32:45;6.07;;;5.47;;
49183;SDS011;35021;49.214;12.270;2022-08-19T13:35:30;5.65;;;4.70;;
49183;SDS011;35021;49.214;12.270;2022-08-19T13:37:57;5.15;;;4.72;;
49183;SDS011;35021;49.214;12.270;2022-08-19T13:40:24;5.53;;;5.03;;
49183;SDS011;35021;49.214;12.270;2022-08-19T13:42:53;4.90;;;4.50;;
49183;SDS011;35021;49.214;12.270;2022-08-19T13:45:22;5.03;;;4.63;;
49183;SDS011;35021;49.214;12.270;2022-08-19T13:47:51;5.57;;;5.07;;
49183;SDS011;35021;49.214;12.270;2022-08-19T13:50:27;5.65;;;5.15;;
49183;SDS011;35021;49.214;12.270;2022-08-19T13:52:57;5.35;;;4.85;;
49183;SDS011;35021;49.214;12.270;2022-08-19T13:55:24;5.45;;;4.95;;
49183;SDS011;35021;49.214;12.270;2022-08-19T13:57:53;5.10;;;4.60;;
49183;SDS011;35021;49.214;12.270;2022-08-19T14:00:22;5.45;;;5.00;;
49183;SDS011;35021;49.214;12.270;2022-08-19T14:02:53;5.50;;;5.00;;
49183;SDS011;35021;49.214;12.270;2022-08-19T14:05:22;5.63;;;5.13;;
49183;SDS011;35021;49.214;12.270;2022-08-19T14:07:49;5.57;;;4.97;;
49183;SDS011;35021;49.214;12.270;2022-08-19T14:10:16;5.38;;;4.50;;
49183;SDS011;35021;49.214;12.270;2022-08-19T14:12:46;5.43;;;4.88;;
49183;SDS011;35021;49.214;12.270;2022-08-19T14:15:14;5.80;;;4.78;;
49183;SDS011;35021;49.214;12.270;2022-08-19T14:17:42;5.30;;;4.80;;
49183;SDS011;35021;49.214;12.270;2022-08-19T14:20:11;5.15;;;4.60;;
49183;SDS011;35021;49.214;12.270;2022-08-19T14:22:44;5.50;;;5.00;;
49183;SDS011;35021;49.214;12.270;2022-08-19T14:25:14;5.22;;;4.72;;
49183;SDS011;35021;49.214;12.270;2022-08-19T14:27:46;6.10;;;5.00;;
49183;SDS011;35021;49.214;12.270;2022-08-19T14:30:15;5.20;;;4.70;;
49183;SDS011;35021;49.214;12.270;2022-08-19T14:32:46;5.82;;;5.20;;
49183;SDS011;35021;49.214;12.270;2022-08-19T14:35:13;5.68;;;5.07;;
49183;SDS011;35021;49.214;12.270;2022-08-19T14:37:42;8.07;;;5.28;;
49183;SDS011;35021;49.214;12.270;2022-08-19T14:40:15;8.43;;;5.90;;
49183;SDS011;35021;49.214;12.270;2022-08-19T14:42:46;6.67;;;5.43;;
49183;SDS011;35021;49.214;12.270;2022-08-19T14:45:14;7.75;;;5.53;;
49183;SDS011;35021;49.214;12.270;2022-08-19T14:47:41;9.73;;;5.68;;
49183;SDS011;35021;49.214;12.270;2022-08-19T14:50:10;7.95;;;5.47;;
49183;SDS011;35021;49.214;12.270;2022-08-19T14:52:47;7.28;;;6.28;;
49183;SDS011;35021;49.214;12.270;2022-08-19T14:55:15;6.63;;;5.90;;
49183;SDS011;35021;49.214;12.270;2022-08-19T14:57:44;8.63;;;6.45;;
49183;SDS011;35021;49.214;12.270;2022-08-19T15:00:11;6.18;;;5.57;;
49183;SDS011;35021;49.214;12.270;2022-08-19T15:02:42;7.30;;;5.97;;
49183;SDS011;35021;49.214;12.270;2022-08-19T15:05:10;6.55;;;5.72;;
49183;SDS011;35021;49.214;12.270;2022-08-19T15:07:38;6.43;;;5.70;;